sensor_id;sensor_type;location;lat;lon;timestamp;P1;durP1;ratioP1;P2;durP2;ratioP2
53263;SDS011;39153;52.680;6.172;2022-08-21T00:02:15;13.15;;;6.78;;
53263;SDS011;39153;52.680;6.172;2022-08-21T00:04:45;10.43;;;6.53;;
53263;SDS011;39153;52.680;6.172;2022-08-21T00:07:11;10.00;;;6.22;;
53263;SDS011;39153;52.680;6.172;2022-08-21T00:09:37;11.05;;;6.05;;
53263;SDS011;39153;52.680;6.172;2022-08-21T00:12:03;11.25;;;6.18;;
53263;SDS011;39153;52.680;6.172;2022-08-21T00:14:29;14.57;;;6.57;;
53263;SDS011;39153;52.680;6.172;2022-08-21T00:16:55;12.18;;;6.32;;
53263;SDS011;39153;52.680;6.172;2022-08-21T00:19:21;10.02;;;6.15;;
53263;SDS011;39153;52.680;6.172;2022-08-21T00:21:50;10.63;;;6.10;;
53263;SDS011;39153;52.680;6.172;2022-08-21T00:24:17;12.07;;;6.50;;
53263;SDS011;39153;52.680;6.172;2022-08-21T00:26:43;11.93;;;6.32;;
53263;SDS011;39153;52.680;6.172;2022-08-21T00:29:10;12.77;;;6.30;;
53263;SDS011;39153;52.680;6.172;2022-08-21T00:31:36;11.43;;;5.82;;
53263;SDS011;39153;52.680;6.172;2022-08-21T00:34:02;11.18;;;5.78;;
53263;SDS011;39153;52.680;6.172;2022-08-21T00:36:28;11.32;;;5.97;;
53263;SDS011;39153;52.680;6.172;2022-08-21T00:38:54;9.48;;;5.80;;
53263;SDS011;39153;52.680;6.172;2022-08-21T00:41:21;10.32;;;6.15;;
53263;SDS011;39153;52.680;6.172;2022-08-21T00:43:48;8.98;;;5.40;;
53263;SDS011;39153;52.680;6.172;2022-08-21T00:46:15;10.20;;;5.75;;
53263;SDS011;39153;52.680;6.172;2022-08-21T00:48:41;11.65;;;5.80;;
53263;SDS011;39153;52.680;6.172;2022-08-21T00:53:48;11.02;;;5.57;;
53263;SDS011;39153;52.680;6.172;2022-08-21T00:56:19;7.97;;;5.47;;
53263;SDS011;39153;52.680;6.172;2022-08-21T00:58:46;8.95;;;5.93;;
53263;SDS011;39153;52.680;6.172;2022-08-21T01:01:13;8.32;;;5.68;;
53263;SDS011;39153;52.680;6.172;2022-08-21T01:03:39;10.55;;;6.03;;
53263;SDS011;39153;52.680;6.172;2022-08-21T01:06:05;7.88;;;5.47;;
53263;SDS011;39153;52.680;6.172;2022-08-21T01:08:32;9.80;;;5.93;;
53263;SDS011;39153;52.680;6.172;2022-08-21T01:10:58;8.32;;;5.40;;
53263;SDS011;39153;52.680;6.172;2022-08-21T01:13:26;8.73;;;5.15;;
53263;SDS011;39153;52.680;6.172;2022-08-21T01:15:55;8.50;;;5.30;;
53263;SDS011;39153;52.680;6.172;2022-08-21T01:18:24;9.82;;;5.75;;
53263;SDS011;39153;52.680;6.172;2022-08-21T01:23:37;9.43;;;5.80;;
53263;SDS011;39153;52.680;6.172;2022-08-21T01:26:05;8.35;;;5.93;;
53263;SDS011;39153;52.680;6.172;2022-08-21T01:28:34;9.23;;;5.90;;
53263;SDS011;39153;52.680;6.172;2022-08-21T01:31:06;7.72;;;5.63;;
53263;SDS011;39153;52.680;6.172;2022-08-21T01:33:34;9.52;;;5.75;;
53263;SDS011;39153;52.680;6.172;2022-08-21T01:36:00;9.13;;;5.90;;
53263;SDS011;39153;52.680;6.172;2022-08-21T01:38:26;12.27;;;5.85;;
53263;SDS011;39153;52.680;6.172;2022-08-21T01:40:51;13.82;;;6.43;;
53263;SDS011;39153;52.680;6.172;2022-08-21T01:43:17;8.13;;;5.93;;
53263;SDS011;39153;52.680;6.172;2022-08-21T01:45:43;8.25;;;6.05;;
53263;SDS011;39153;52.680;6.172;2022-08-21T01:48:09;7.93;;;6.07;;
53263;SDS011;39153;52.680;6.172;2022-08-21T01:50:34;10.93;;;6.07;;
53263;SDS011;39153;52.680;6.172;2022-08-21T01:53:01;7.82;;;5.38;;
53263;SDS011;39153;52.680;6.172;2022-08-21T01:55:26;11.32;;;5.90;;
53263;SDS011;39153;52.680;6.172;2022-08-21T01:57:52;9.55;;;5.78;;
53263;SDS011;39153;52.680;6.172;2022-08-21T02:00:20;9.57;;;5.68;;
53263;SDS011;39153;52.680;6.172;2022-08-21T02:02:50;8.27;;;5.78;;
53263;SDS011;39153;52.680;6.172;2022-08-21T02:05:17;10.98;;;6.18;;
53263;SDS011;39153;52.680;6.172;2022-08-21T02:07:47;9.20;;;6.03;;
53263;SDS011;39153;52.680;6.172;2022-08-21T02:10:17;15.30;;;7.10;;
53263;SDS011;39153;52.680;6.172;2022-08-21T02:12:44;9.40;;;6.40;;
53263;SDS011;39153;52.680;6.172;2022-08-21T02:15:10;12.13;;;6.88;;
53263;SDS011;39153;52.680;6.172;2022-08-21T02:17:45;10.18;;;6.50;;
53263;SDS011;39153;52.680;6.172;2022-08-21T02:20:16;12.27;;;7.05;;
53263;SDS011;39153;52.680;6.172;2022-08-21T02:22:45;9.80;;;6.35;;
53263;SDS011;39153;52.680;6.172;2022-08-21T02:25:10;10.85;;;7.05;;
53263;SDS011;39153;52.680;6.172;2022-08-21T02:27:40;8.73;;;6.88;;
53263;SDS011;39153;52.680;6.172;2022-08-21T02:30:08;9.40;;;6.32;;
53263;SDS011;39153;52.680;6.172;2022-08-21T02:32:39;10.40;;;6.68;;
53263;SDS011;39153;52.680;6.172;2022-08-21T02:35:06;11.23;;;6.75;;
53263;SDS011;39153;52.680;6.172;2022-08-21T02:37:32;9.75;;;7.13;;
53263;SDS011;39153;52.680;6.172;2022-08-21T02:39:59;9.27;;;6.53;;
53263;SDS011;39153;52.680;6.172;2022-08-21T02:42:26;8.75;;;6.68;;
53263;SDS011;39153;52.680;6.172;2022-08-21T02:44:52;11.23;;;6.57;;
53263;SDS011;39153;52.680;6.172;2022-08-21T02:47:17;11.60;;;6.80;;
53263;SDS011;39153;52.680;6.172;2022-08-21T02:49:43;10.48;;;7.38;;
53263;SDS011;39153;52.680;6.172;2022-08-21T02:52:09;10.52;;;7.50;;
53263;SDS011;39153;52.680;6.172;2022-08-21T02:54:34;9.98;;;7.35;;
53263;SDS011;39153;52.680;6.172;2022-08-21T02:57:00;10.02;;;6.95;;
53263;SDS011;39153;52.680;6.172;2022-08-21T02:59:25;11.40;;;6.88;;
53263;SDS011;39153;52.680;6.172;2022-08-21T03:01:51;11.57;;;6.22;;
53263;SDS011;39153;52.680;6.172;2022-08-21T03:04:17;10.40;;;7.15;;
53263;SDS011;39153;52.680;6.172;2022-08-21T03:06:43;10.77;;;7.15;;
53263;SDS011;39153;52.680;6.172;2022-08-21T03:09:09;12.80;;;8.18;;
53263;SDS011;39153;52.680;6.172;2022-08-21T03:11:34;13.30;;;7.28;;
53263;SDS011;39153;52.680;6.172;2022-08-21T03:14:01;11.23;;;7.10;;
53263;SDS011;39153;52.680;6.172;2022-08-21T03:16:26;12.73;;;8.10;;
53263;SDS011;39153;52.680;6.172;2022-08-21T03:18:52;11.88;;;7.40;;
53263;SDS011;39153;52.680;6.172;2022-08-21T03:21:18;11.07;;;7.32;;
53263;SDS011;39153;52.680;6.172;2022-08-21T03:23:44;13.02;;;7.60;;
53263;SDS011;39153;52.680;6.172;2022-08-21T03:26:10;12.38;;;7.65;;
53263;SDS011;39153;52.680;6.172;2022-08-21T03:28:36;12.85;;;8.27;;
53263;SDS011;39153;52.680;6.172;2022-08-21T03:31:03;13.13;;;8.10;;
53263;SDS011;39153;52.680;6.172;2022-08-21T03:33:30;11.80;;;7.60;;
53263;SDS011;39153;52.680;6.172;2022-08-21T03:36:01;11.60;;;7.55;;
53263;SDS011;39153;52.680;6.172;2022-08-21T03:38:30;15.38;;;8.68;;
53263;SDS011;39153;52.680;6.172;2022-08-21T03:40:57;12.18;;;8.75;;
53263;SDS011;39153;52.680;6.172;2022-08-21T03:43:24;10.15;;;8.18;;
53263;SDS011;39153;52.680;6.172;2022-08-21T03:45:51;14.05;;;7.97;;
53263;SDS011;39153;52.680;6.172;2022-08-21T03:48:17;12.75;;;8.38;;
53263;SDS011;39153;52.680;6.172;2022-08-21T03:50:44;12.00;;;7.72;;
53263;SDS011;39153;52.680;6.172;2022-08-21T03:53:12;12.75;;;8.45;;
53263;SDS011;39153;52.680;6.172;2022-08-21T03:55:39;10.18;;;7.72;;
53263;SDS011;39153;52.680;6.172;2022-08-21T03:58:05;11.23;;;7.78;;
53263;SDS011;39153;52.680;6.172;2022-08-21T04:00:31;10.65;;;7.10;;
53263;SDS011;39153;52.680;6.172;2022-08-21T04:02:57;12.13;;;7.55;;
53263;SDS011;39153;52.680;6.172;2022-08-21T04:05:22;11.75;;;7.53;;
53263;SDS011;39153;52.680;6.172;2022-08-21T04:08:03;11.07;;;7.38;;
53263;SDS011;39153;52.680;6.172;2022-08-21T04:10:31;9.82;;;7.30;;
53263;SDS011;39153;52.680;6.172;2022-08-21T04:12:59;10.75;;;7.88;;
53263;SDS011;39153;52.680;6.172;2022-08-21T04:15:26;10.07;;;7.22;;
53263;SDS011;39153;52.680;6.172;2022-08-21T04:17:52;8.95;;;6.88;;
53263;SDS011;39153;52.680;6.172;2022-08-21T04:20:18;9.93;;;6.90;;
53263;SDS011;39153;52.680;6.172;2022-08-21T04:22:44;9.95;;;7.22;;
53263;SDS011;39153;52.680;6.172;2022-08-21T04:25:11;11.35;;;7.20;;
53263;SDS011;39153;52.680;6.172;2022-08-21T04:27:38;8.45;;;6.47;;
53263;SDS011;39153;52.680;6.172;2022-08-21T04:30:05;7.53;;;6.13;;
53263;SDS011;39153;52.680;6.172;2022-08-21T04:32:32;9.48;;;6.22;;
53263;SDS011;39153;52.680;6.172;2022-08-21T04:35:03;9.20;;;6.57;;
53263;SDS011;39153;52.680;6.172;2022-08-21T04:37:31;10.10;;;5.97;;
53263;SDS011;39153;52.680;6.172;2022-08-21T04:39:57;9.95;;;5.82;;
53263;SDS011;39153;52.680;6.172;2022-08-21T04:42:26;7.72;;;5.30;;
53263;SDS011;39153;52.680;6.172;2022-08-21T04:44:52;11.45;;;6.32;;
53263;SDS011;39153;52.680;6.172;2022-08-21T04:47:19;10.20;;;6.97;;
53263;SDS011;39153;52.680;6.172;2022-08-21T04:49:44;12.35;;;6.57;;
53263;SDS011;39153;52.680;6.172;2022-08-21T04:52:11;11.43;;;6.32;;
53263;SDS011;39153;52.680;6.172;2022-08-21T04:54:40;10.63;;;5.88;;
53263;SDS011;39153;52.680;6.172;2022-08-21T04:57:08;10.20;;;6.10;;
53263;SDS011;39153;52.680;6.172;2022-08-21T04:59:36;9.75;;;6.78;;
53263;SDS011;39153;52.680;6.172;2022-08-21T05:02:05;9.80;;;6.28;;
53263;SDS011;39153;52.680;6.172;2022-08-21T05:04:34;9.02;;;6.35;;
53263;SDS011;39153;52.680;6.172;2022-08-21T05:07:05;8.73;;;6.13;;
53263;SDS011;39153;52.680;6.172;2022-08-21T05:09:35;11.32;;;6.20;;
53263;SDS011;39153;52.680;6.172;2022-08-21T05:12:03;8.05;;;5.07;;
53263;SDS011;39153;52.680;6.172;2022-08-21T05:14:29;7.70;;;4.93;;
53263;SDS011;39153;52.680;6.172;2022-08-21T05:16:55;12.60;;;6.75;;
53263;SDS011;39153;52.680;6.172;2022-08-21T05:19:21;12.43;;;6.32;;
53263;SDS011;39153;52.680;6.172;2022-08-21T05:21:47;11.68;;;6.28;;
53263;SDS011;39153;52.680;6.172;2022-08-21T05:24:13;13.57;;;6.70;;
53263;SDS011;39153;52.680;6.172;2022-08-21T05:26:39;10.02;;;6.00;;
53263;SDS011;39153;52.680;6.172;2022-08-21T05:29:05;10.35;;;6.70;;
53263;SDS011;39153;52.680;6.172;2022-08-21T05:31:31;12.65;;;7.43;;
53263;SDS011;39153;52.680;6.172;2022-08-21T05:33:57;11.55;;;7.38;;
53263;SDS011;39153;52.680;6.172;2022-08-21T05:36:23;10.68;;;7.13;;
53263;SDS011;39153;52.680;6.172;2022-08-21T05:38:49;12.02;;;6.93;;
53263;SDS011;39153;52.680;6.172;2022-08-21T05:41:15;14.10;;;7.22;;
53263;SDS011;39153;52.680;6.172;2022-08-21T05:43:40;10.88;;;7.03;;
53263;SDS011;39153;52.680;6.172;2022-08-21T05:46:06;9.95;;;6.88;;
53263;SDS011;39153;52.680;6.172;2022-08-21T05:48:33;11.05;;;6.55;;
53263;SDS011;39153;52.680;6.172;2022-08-21T05:51:04;11.77;;;7.00;;
53263;SDS011;39153;52.680;6.172;2022-08-21T05:53:34;11.82;;;6.10;;
53263;SDS011;39153;52.680;6.172;2022-08-21T05:56:01;11.75;;;7.03;;
53263;SDS011;39153;52.680;6.172;2022-08-21T05:58:29;11.25;;;6.53;;
53263;SDS011;39153;52.680;6.172;2022-08-21T06:00:55;11.77;;;6.20;;
53263;SDS011;39153;52.680;6.172;2022-08-21T06:03:23;12.00;;;7.65;;
53263;SDS011;39153;52.680;6.172;2022-08-21T06:05:51;12.57;;;5.90;;
53263;SDS011;39153;52.680;6.172;2022-08-21T06:08:17;12.43;;;6.70;;
53263;SDS011;39153;52.680;6.172;2022-08-21T06:10:44;9.43;;;6.18;;
53263;SDS011;39153;52.680;6.172;2022-08-21T06:13:12;10.45;;;6.75;;
53263;SDS011;39153;52.680;6.172;2022-08-21T06:15:38;10.75;;;6.60;;
53263;SDS011;39153;52.680;6.172;2022-08-21T06:18:04;11.20;;;7.00;;
53263;SDS011;39153;52.680;6.172;2022-08-21T06:20:30;11.55;;;5.63;;
53263;SDS011;39153;52.680;6.172;2022-08-21T06:22:57;12.38;;;6.32;;
53263;SDS011;39153;52.680;6.172;2022-08-21T06:25:23;10.68;;;6.53;;
53263;SDS011;39153;52.680;6.172;2022-08-21T06:27:49;11.85;;;6.80;;
53263;SDS011;39153;52.680;6.172;2022-08-21T06:30:15;14.45;;;7.25;;
53263;SDS011;39153;52.680;6.172;2022-08-21T06:32:41;12.07;;;6.57;;
53263;SDS011;39153;52.680;6.172;2022-08-21T06:35:07;11.23;;;5.88;;
53263;SDS011;39153;52.680;6.172;2022-08-21T06:37:33;10.10;;;6.15;;
53263;SDS011;39153;52.680;6.172;2022-08-21T06:39:59;12.18;;;6.53;;
53263;SDS011;39153;52.680;6.172;2022-08-21T06:42:25;14.65;;;7.68;;
53263;SDS011;39153;52.680;6.172;2022-08-21T06:44:52;11.98;;;6.75;;
53263;SDS011;39153;52.680;6.172;2022-08-21T06:47:18;16.75;;;6.18;;
53263;SDS011;39153;52.680;6.172;2022-08-21T06:49:44;11.95;;;6.22;;
53263;SDS011;39153;52.680;6.172;2022-08-21T06:52:10;11.68;;;6.30;;
53263;SDS011;39153;52.680;6.172;2022-08-21T06:54:37;14.65;;;6.60;;
53263;SDS011;39153;52.680;6.172;2022-08-21T06:57:04;11.68;;;6.38;;
53263;SDS011;39153;52.680;6.172;2022-08-21T06:59:30;15.90;;;7.07;;
53263;SDS011;39153;52.680;6.172;2022-08-21T07:01:57;9.70;;;6.45;;
53263;SDS011;39153;52.680;6.172;2022-08-21T07:04:23;11.82;;;6.25;;
53263;SDS011;39153;52.680;6.172;2022-08-21T07:06:49;16.42;;;6.90;;
53263;SDS011;39153;52.680;6.172;2022-08-21T07:09:15;13.07;;;7.03;;
53263;SDS011;39153;52.680;6.172;2022-08-21T07:11:40;13.23;;;6.15;;
53263;SDS011;39153;52.680;6.172;2022-08-21T07:14:06;10.65;;;5.60;;
53263;SDS011;39153;52.680;6.172;2022-08-21T07:16:32;11.02;;;5.53;;
53263;SDS011;39153;52.680;6.172;2022-08-21T07:18:58;15.68;;;5.32;;
53263;SDS011;39153;52.680;6.172;2022-08-21T07:21:24;9.25;;;5.43;;
53263;SDS011;39153;52.680;6.172;2022-08-21T07:23:50;10.25;;;5.68;;
53263;SDS011;39153;52.680;6.172;2022-08-21T07:26:18;12.70;;;4.80;;
53263;SDS011;39153;52.680;6.172;2022-08-21T07:28:47;14.18;;;5.68;;
53263;SDS011;39153;52.680;6.172;2022-08-21T07:31:14;11.45;;;4.85;;
53263;SDS011;39153;52.680;6.172;2022-08-21T07:33:41;9.07;;;4.00;;
53263;SDS011;39153;52.680;6.172;2022-08-21T07:36:07;9.85;;;3.30;;
53263;SDS011;39153;52.680;6.172;2022-08-21T07:38:33;10.75;;;2.90;;
53263;SDS011;39153;52.680;6.172;2022-08-21T07:41:01;9.30;;;2.60;;
53263;SDS011;39153;52.680;6.172;2022-08-21T07:43:28;8.48;;;2.55;;
53263;SDS011;39153;52.680;6.172;2022-08-21T07:45:54;7.90;;;2.70;;
53263;SDS011;39153;52.680;6.172;2022-08-21T07:48:21;9.30;;;2.40;;
53263;SDS011;39153;52.680;6.172;2022-08-21T07:50:47;8.65;;;2.17;;
53263;SDS011;39153;52.680;6.172;2022-08-21T07:53:13;8.40;;;2.03;;
53263;SDS011;39153;52.680;6.172;2022-08-21T07:55:39;8.13;;;1.80;;
53263;SDS011;39153;52.680;6.172;2022-08-21T07:58:05;7.72;;;1.92;;
53263;SDS011;39153;52.680;6.172;2022-08-21T08:00:31;11.07;;;2.05;;
53263;SDS011;39153;52.680;6.172;2022-08-21T08:02:57;9.85;;;2.00;;
53263;SDS011;39153;52.680;6.172;2022-08-21T08:05:25;7.00;;;1.85;;
53263;SDS011;39153;52.680;6.172;2022-08-21T08:07:52;8.73;;;2.00;;
53263;SDS011;39153;52.680;6.172;2022-08-21T08:10:18;10.38;;;2.50;;
53263;SDS011;39153;52.680;6.172;2022-08-21T08:12:45;9.75;;;2.30;;
53263;SDS011;39153;52.680;6.172;2022-08-21T08:15:12;9.70;;;2.60;;
53263;SDS011;39153;52.680;6.172;2022-08-21T08:17:42;8.10;;;2.72;;
53263;SDS011;39153;52.680;6.172;2022-08-21T08:20:09;13.02;;;2.72;;
53263;SDS011;39153;52.680;6.172;2022-08-21T08:22:36;7.80;;;2.67;;
53263;SDS011;39153;52.680;6.172;2022-08-21T08:25:03;7.93;;;2.85;;
53263;SDS011;39153;52.680;6.172;2022-08-21T08:27:30;9.70;;;2.50;;
53263;SDS011;39153;52.680;6.172;2022-08-21T08:29:56;10.07;;;2.65;;
53263;SDS011;39153;52.680;6.172;2022-08-21T08:32:22;11.90;;;2.92;;
53263;SDS011;39153;52.680;6.172;2022-08-21T08:34:48;8.43;;;2.70;;
53263;SDS011;39153;52.680;6.172;2022-08-21T08:37:16;8.32;;;2.42;;
53263;SDS011;39153;52.680;6.172;2022-08-21T08:39:42;10.13;;;2.97;;
53263;SDS011;39153;52.680;6.172;2022-08-21T08:44:38;8.88;;;3.20;;
53263;SDS011;39153;52.680;6.172;2022-08-21T08:47:05;8.75;;;2.83;;
53263;SDS011;39153;52.680;6.172;2022-08-21T08:49:37;8.80;;;2.53;;
53263;SDS011;39153;52.680;6.172;2022-08-21T08:55:09;10.75;;;3.08;;
53263;SDS011;39153;52.680;6.172;2022-08-21T08:57:46;9.50;;;3.30;;
53263;SDS011;39153;52.680;6.172;2022-08-21T09:00:16;8.27;;;3.67;;
53263;SDS011;39153;52.680;6.172;2022-08-21T09:02:44;10.63;;;3.55;;
53263;SDS011;39153;52.680;6.172;2022-08-21T09:11:51;10.38;;;3.80;;
53263;SDS011;39153;52.680;6.172;2022-08-21T09:25:43;10.45;;;3.10;;
53263;SDS011;39153;52.680;6.172;2022-08-21T09:28:23;11.27;;;2.75;;
53263;SDS011;39153;52.680;6.172;2022-08-21T09:30:49;13.90;;;3.20;;
53263;SDS011;39153;52.680;6.172;2022-08-21T09:33:16;12.20;;;3.40;;
53263;SDS011;39153;52.680;6.172;2022-08-21T09:35:50;14.30;;;3.17;;
53263;SDS011;39153;52.680;6.172;2022-08-21T09:41:00;12.27;;;3.33;;
53263;SDS011;39153;52.680;6.172;2022-08-21T09:43:29;11.25;;;2.70;;
53263;SDS011;39153;52.680;6.172;2022-08-21T09:46:11;9.20;;;2.53;;
53263;SDS011;39153;52.680;6.172;2022-08-21T09:48:47;11.15;;;2.47;;
53263;SDS011;39153;52.680;6.172;2022-08-21T09:51:19;8.70;;;2.22;;
53263;SDS011;39153;52.680;6.172;2022-08-21T09:57:05;9.90;;;2.40;;
53263;SDS011;39153;52.680;6.172;2022-08-21T09:59:43;12.48;;;2.60;;
53263;SDS011;39153;52.680;6.172;2022-08-21T10:04:56;14.43;;;3.33;;
53263;SDS011;39153;52.680;6.172;2022-08-21T10:07:27;10.98;;;2.72;;
53263;SDS011;39153;52.680;6.172;2022-08-21T10:12:36;11.02;;;2.30;;
53263;SDS011;39153;52.680;6.172;2022-08-21T10:20:39;11.57;;;2.75;;
53263;SDS011;39153;52.680;6.172;2022-08-21T10:28:40;9.70;;;2.70;;
53263;SDS011;39153;52.680;6.172;2022-08-21T10:34:27;12.60;;;2.38;;
53263;SDS011;39153;52.680;6.172;2022-08-21T10:42:14;6.13;;;1.58;;
53263;SDS011;39153;52.680;6.172;2022-08-21T10:55:30;11.80;;;2.65;;
53263;SDS011;39153;52.680;6.172;2022-08-21T11:01:14;10.35;;;2.60;;
53263;SDS011;39153;52.680;6.172;2022-08-21T11:03:51;8.50;;;2.53;;
53263;SDS011;39153;52.680;6.172;2022-08-21T11:06:25;11.68;;;3.08;;
53263;SDS011;39153;52.680;6.172;2022-08-21T11:08:55;9.45;;;2.63;;
53263;SDS011;39153;52.680;6.172;2022-08-21T11:11:34;12.63;;;2.75;;
53263;SDS011;39153;52.680;6.172;2022-08-21T11:14:09;11.82;;;2.63;;
53263;SDS011;39153;52.680;6.172;2022-08-21T11:19:24;10.32;;;2.25;;
53263;SDS011;39153;52.680;6.172;2022-08-21T11:21:56;9.75;;;2.00;;
53263;SDS011;39153;52.680;6.172;2022-08-21T11:24:50;8.25;;;2.00;;
53263;SDS011;39153;52.680;6.172;2022-08-21T11:27:50;10.00;;;2.03;;
53263;SDS011;39153;52.680;6.172;2022-08-21T11:30:17;8.93;;;1.55;;
53263;SDS011;39153;52.680;6.172;2022-08-21T11:41:06;8.50;;;2.13;;
53263;SDS011;39153;52.680;6.172;2022-08-21T11:44:10;8.90;;;2.15;;
53263;SDS011;39153;52.680;6.172;2022-08-21T11:52:35;10.50;;;2.17;;
53263;SDS011;39153;52.680;6.172;2022-08-21T11:55:19;7.88;;;1.92;;
53263;SDS011;39153;52.680;6.172;2022-08-21T11:57:55;12.75;;;2.15;;
53263;SDS011;39153;52.680;6.172;2022-08-21T12:00:33;11.63;;;2.35;;
53263;SDS011;39153;52.680;6.172;2022-08-21T12:06:02;8.60;;;2.03;;
53263;SDS011;39153;52.680;6.172;2022-08-21T12:08:34;9.30;;;1.77;;
53263;SDS011;39153;52.680;6.172;2022-08-21T12:16:42;8.63;;;1.70;;
53263;SDS011;39153;52.680;6.172;2022-08-21T12:22:13;8.25;;;2.05;;
53263;SDS011;39153;52.680;6.172;2022-08-21T12:24:39;8.57;;;1.67;;
53263;SDS011;39153;52.680;6.172;2022-08-21T12:32:29;10.63;;;2.22;;
53263;SDS011;39153;52.680;6.172;2022-08-21T12:35:10;8.55;;;2.20;;
53263;SDS011;39153;52.680;6.172;2022-08-21T12:40:42;7.53;;;1.98;;
53263;SDS011;39153;52.680;6.172;2022-08-21T12:43:15;12.32;;;2.20;;
53263;SDS011;39153;52.680;6.172;2022-08-21T12:45:46;8.85;;;1.85;;
53263;SDS011;39153;52.680;6.172;2022-08-21T12:51:14;9.90;;;1.90;;
53263;SDS011;39153;52.680;6.172;2022-08-21T12:53:46;10.30;;;2.28;;
53263;SDS011;39153;52.680;6.172;2022-08-21T12:56:14;10.75;;;2.10;;
53263;SDS011;39153;52.680;6.172;2022-08-21T12:58:46;11.20;;;2.22;;
53263;SDS011;39153;52.680;6.172;2022-08-21T13:03:50;7.80;;;1.90;;
53263;SDS011;39153;52.680;6.172;2022-08-21T13:06:21;8.70;;;1.80;;
53263;SDS011;39153;52.680;6.172;2022-08-21T13:08:49;7.82;;;1.73;;
53263;SDS011;39153;52.680;6.172;2022-08-21T13:11:22;9.18;;;1.80;;
53263;SDS011;39153;52.680;6.172;2022-08-21T13:13:49;9.00;;;1.50;;
53263;SDS011;39153;52.680;6.172;2022-08-21T13:16:20;5.55;;;1.60;;
53263;SDS011;39153;52.680;6.172;2022-08-21T13:21:18;6.88;;;1.77;;
53263;SDS011;39153;52.680;6.172;2022-08-21T13:23:43;6.18;;;1.80;;
53263;SDS011;39153;52.680;6.172;2022-08-21T13:26:13;8.57;;;2.40;;
53263;SDS011;39153;52.680;6.172;2022-08-21T13:28:49;8.35;;;1.58;;
53263;SDS011;39153;52.680;6.172;2022-08-21T13:31:18;7.45;;;1.55;;
53263;SDS011;39153;52.680;6.172;2022-08-21T13:33:49;8.30;;;1.92;;
53263;SDS011;39153;52.680;6.172;2022-08-21T13:36:24;6.63;;;1.70;;
53263;SDS011;39153;52.680;6.172;2022-08-21T13:38:53;8.15;;;1.80;;
53263;SDS011;39153;52.680;6.172;2022-08-21T13:43:57;6.20;;;1.70;;
53263;SDS011;39153;52.680;6.172;2022-08-21T13:46:35;7.55;;;2.10;;
53263;SDS011;39153;52.680;6.172;2022-08-21T13:49:02;9.95;;;2.03;;
53263;SDS011;39153;52.680;6.172;2022-08-21T13:51:30;6.85;;;1.70;;
53263;SDS011;39153;52.680;6.172;2022-08-21T13:53:57;8.35;;;1.88;;
53263;SDS011;39153;52.680;6.172;2022-08-21T13:56:31;5.10;;;1.50;;
53263;SDS011;39153;52.680;6.172;2022-08-21T13:59:06;6.78;;;1.60;;
53263;SDS011;39153;52.680;6.172;2022-08-21T14:01:47;9.93;;;1.77;;
53263;SDS011;39153;52.680;6.172;2022-08-21T14:04:18;6.47;;;1.65;;
53263;SDS011;39153;52.680;6.172;2022-08-21T14:06:44;10.38;;;2.25;;
53263;SDS011;39153;52.680;6.172;2022-08-21T14:09:12;5.53;;;1.67;;
53263;SDS011;39153;52.680;6.172;2022-08-21T14:11:47;6.03;;;1.90;;
53263;SDS011;39153;52.680;6.172;2022-08-21T14:14:17;7.22;;;1.88;;
53263;SDS011;39153;52.680;6.172;2022-08-21T14:21:48;7.18;;;2.00;;
53263;SDS011;39153;52.680;6.172;2022-08-21T14:26:56;7.13;;;1.67;;
53263;SDS011;39153;52.680;6.172;2022-08-21T14:29:33;7.50;;;1.63;;
53263;SDS011;39153;52.680;6.172;2022-08-21T14:32:12;5.55;;;1.40;;
53263;SDS011;39153;52.680;6.172;2022-08-21T14:34:41;5.88;;;1.73;;
53263;SDS011;39153;52.680;6.172;2022-08-21T14:37:06;6.60;;;1.60;;
53263;SDS011;39153;52.680;6.172;2022-08-21T14:39:32;6.43;;;1.50;;
53263;SDS011;39153;52.680;6.172;2022-08-21T14:41:58;7.70;;;1.80;;
53263;SDS011;39153;52.680;6.172;2022-08-21T14:44:24;7.07;;;1.60;;
53263;SDS011;39153;52.680;6.172;2022-08-21T14:46:50;5.97;;;1.52;;
53263;SDS011;39153;52.680;6.172;2022-08-21T14:49:16;5.95;;;1.30;;
53263;SDS011;39153;52.680;6.172;2022-08-21T14:51:41;6.72;;;2.38;;
53263;SDS011;39153;52.680;6.172;2022-08-21T14:54:07;11.00;;;3.38;;
53263;SDS011;39153;52.680;6.172;2022-08-21T14:56:33;7.93;;;2.50;;
53263;SDS011;39153;52.680;6.172;2022-08-21T14:59:02;5.90;;;2.20;;
53263;SDS011;39153;52.680;6.172;2022-08-21T15:01:32;4.82;;;1.50;;
53263;SDS011;39153;52.680;6.172;2022-08-21T15:04:00;6.45;;;1.75;;
53263;SDS011;39153;52.680;6.172;2022-08-21T15:06:25;7.35;;;1.80;;
53263;SDS011;39153;52.680;6.172;2022-08-21T15:08:51;8.43;;;2.50;;
53263;SDS011;39153;52.680;6.172;2022-08-21T15:11:18;13.70;;;3.00;;
53263;SDS011;39153;52.680;6.172;2022-08-21T15:13:46;10.50;;;3.45;;
53263;SDS011;39153;52.680;6.172;2022-08-21T15:16:15;6.20;;;2.90;;
53263;SDS011;39153;52.680;6.172;2022-08-21T15:18:41;9.77;;;3.50;;
53263;SDS011;39153;52.680;6.172;2022-08-21T15:21:07;8.30;;;2.90;;
53263;SDS011;39153;52.680;6.172;2022-08-21T15:23:33;8.07;;;2.13;;
53263;SDS011;39153;52.680;6.172;2022-08-21T15:25:59;7.05;;;2.58;;
53263;SDS011;39153;52.680;6.172;2022-08-21T15:28:25;6.78;;;2.40;;
53263;SDS011;39153;52.680;6.172;2022-08-21T15:30:52;7.72;;;2.17;;
53263;SDS011;39153;52.680;6.172;2022-08-21T15:33:18;5.85;;;1.58;;
53263;SDS011;39153;52.680;6.172;2022-08-21T15:35:44;7.32;;;1.88;;
53263;SDS011;39153;52.680;6.172;2022-08-21T15:38:11;6.88;;;1.30;;
53263;SDS011;39153;52.680;6.172;2022-08-21T15:40:38;7.38;;;1.75;;
53263;SDS011;39153;52.680;6.172;2022-08-21T15:43:05;8.07;;;1.23;;
53263;SDS011;39153;52.680;6.172;2022-08-21T15:45:32;5.45;;;1.50;;
53263;SDS011;39153;52.680;6.172;2022-08-21T15:47:58;9.75;;;1.80;;
53263;SDS011;39153;52.680;6.172;2022-08-21T15:50:24;7.47;;;2.17;;
53263;SDS011;39153;52.680;6.172;2022-08-21T15:52:51;7.82;;;2.50;;
53263;SDS011;39153;52.680;6.172;2022-08-21T15:55:17;9.10;;;2.30;;
53263;SDS011;39153;52.680;6.172;2022-08-21T15:57:47;6.63;;;1.75;;
53263;SDS011;39153;52.680;6.172;2022-08-21T16:00:17;7.22;;;1.80;;
53263;SDS011;39153;52.680;6.172;2022-08-21T16:02:47;6.85;;;1.70;;
53263;SDS011;39153;52.680;6.172;2022-08-21T16:05:15;8.18;;;1.73;;
53263;SDS011;39153;52.680;6.172;2022-08-21T16:07:44;9.00;;;1.52;;
53263;SDS011;39153;52.680;6.172;2022-08-21T16:10:11;4.05;;;1.10;;
53263;SDS011;39153;52.680;6.172;2022-08-21T16:12:41;5.57;;;1.40;;
53263;SDS011;39153;52.680;6.172;2022-08-21T16:15:10;6.15;;;1.70;;
53263;SDS011;39153;52.680;6.172;2022-08-21T16:17:38;5.45;;;1.63;;
53263;SDS011;39153;52.680;6.172;2022-08-21T16:20:06;6.65;;;1.60;;
53263;SDS011;39153;52.680;6.172;2022-08-21T16:22:34;5.30;;;1.25;;
53263;SDS011;39153;52.680;6.172;2022-08-21T16:25:00;5.43;;;1.45;;
53263;SDS011;39153;52.680;6.172;2022-08-21T16:27:26;6.93;;;1.35;;
53263;SDS011;39153;52.680;6.172;2022-08-21T16:29:52;5.00;;;1.70;;
53263;SDS011;39153;52.680;6.172;2022-08-21T16:32:18;6.93;;;1.60;;
53263;SDS011;39153;52.680;6.172;2022-08-21T16:34:45;4.55;;;1.58;;
53263;SDS011;39153;52.680;6.172;2022-08-21T16:37:13;8.38;;;1.35;;
53263;SDS011;39153;52.680;6.172;2022-08-21T16:39:39;5.85;;;1.58;;
53263;SDS011;39153;52.680;6.172;2022-08-21T16:42:05;5.40;;;1.33;;
53263;SDS011;39153;52.680;6.172;2022-08-21T16:44:32;5.10;;;1.20;;
53263;SDS011;39153;52.680;6.172;2022-08-21T16:47:01;6.22;;;1.60;;
53263;SDS011;39153;52.680;6.172;2022-08-21T16:49:27;6.00;;;1.42;;
53263;SDS011;39153;52.680;6.172;2022-08-21T16:51:53;5.03;;;1.50;;
53263;SDS011;39153;52.680;6.172;2022-08-21T16:54:19;8.18;;;1.60;;
53263;SDS011;39153;52.680;6.172;2022-08-21T16:56:44;7.72;;;1.50;;